createdAt,value
2022-09-11T00:00:52.870Z,9990.22
2022-09-11T00:01:55.611Z,13925.53
2022-09-11T00:02:57.887Z,14909.97
2022-09-11T00:04:00.490Z,15238.88
2022-09-11T00:05:02.866Z,17865.47
2022-09-11T00:06:07.535Z,19184.00
2022-09-11T00:07:09.722Z,18849.22
2022-09-11T00:08:14.641Z,17867.75
2022-09-11T00:09:16.751Z,19833.41
2022-09-11T00:10:19.054Z,21147.97
2022-09-11T00:11:22.642Z,17864.94
2022-09-11T00:12:24.779Z,18517.94
2022-09-11T00:13:26.875Z,20160.22
2022-09-11T00:14:29.649Z,20159.63
2022-09-11T00:15:36.865Z,16223.69
2022-09-11T00:16:43.061Z,17865.19
2022-09-11T00:17:45.195Z,18186.75
2022-09-11T00:18:48.894Z,18186.50
2022-09-11T00:19:51.022Z,19500.06
2022-09-11T00:20:55.140Z,18189.13
2022-09-11T00:21:57.293Z,17528.22
2022-09-11T00:23:04.814Z,17201.69
2022-09-11T00:24:09.907Z,17857.41
2022-09-11T00:25:12.038Z,19827.53
2022-09-11T00:26:14.125Z,20812.94
2022-09-11T00:27:16.318Z,20482.97
2022-09-11T00:28:22.112Z,19174.28
2022-09-11T00:29:24.283Z,20152.91
2022-09-11T00:30:27.032Z,20154.94
2022-09-11T00:31:30.142Z,19496.41
2022-09-11T00:32:33.463Z,15227.06
2022-09-11T00:33:36.204Z,11620.16
2022-09-11T00:34:39.178Z,8015.69
2022-09-11T00:35:41.990Z,8016.44
2022-09-11T00:36:44.205Z,7033.19
2022-09-11T00:37:46.357Z,8671.69
2022-09-11T00:38:50.148Z,7689.81
2022-09-11T00:39:52.737Z,5723.56
2022-09-11T00:40:56.070Z,6380.09
2022-09-11T00:41:58.515Z,8999.97
2022-09-11T00:43:00.639Z,6706.28
2022-09-11T00:44:28.311Z,5398.78
2022-09-11T00:45:32.200Z,7034.47
2022-09-11T00:46:42.199Z,5726.50
2022-09-11T00:47:44.363Z,9000.47
2022-09-11T00:48:49.967Z,9331.19
2022-09-11T00:49:55.371Z,10643.38
2022-09-11T00:51:01.171Z,12939.22
2022-09-11T00:52:19.051Z,12284.81
2022-09-11T00:53:23.546Z,12610.13
2022-09-11T00:54:31.433Z,12612.84
2022-09-11T00:55:37.139Z,14580.16
2022-09-11T00:56:41.841Z,14251.78
2022-09-11T00:57:49.669Z,13923.97
2022-09-11T00:58:54.878Z,13923.69
2022-09-11T00:59:59.476Z,14906.84
2022-09-11T01:01:03.263Z,16218.66
2022-09-11T01:02:08.458Z,15561.75
2022-09-11T01:03:11.086Z,16872.56
2022-09-11T01:04:13.609Z,16870.66
2022-09-11T01:05:17.269Z,16872.22
2022-09-11T01:06:21.064Z,14900.59
2022-09-11T01:07:26.026Z,14905.06
2022-09-11T01:08:28.450Z,15884.91
2022-09-11T01:09:33.126Z,13264.34
2022-09-11T01:10:59.531Z,15237.28
2022-09-11T01:12:12.679Z,16220.81
2022-09-11T01:13:46.766Z,19167.78
2022-09-11T01:15:06.328Z,19506.44
2022-09-11T01:16:28.796Z,21148.59
2022-09-11T01:17:51.592Z,20818.56
2022-09-11T01:19:08.961Z,20160.81
2022-09-11T01:20:30.026Z,19502.19
2022-09-11T01:21:47.258Z,24106.31
2022-09-11T01:23:21.488Z,22786.41
2022-09-11T01:24:51.755Z,22459.75
2022-09-11T01:26:15.191Z,23112.38
2022-09-11T01:27:43.384Z,22128.31
2022-09-11T01:29:23.914Z,21141.47
2022-09-11T01:30:37.585Z,22452.97
2022-09-11T01:31:56.582Z,21138.69
2022-09-11T01:33:11.304Z,21139.00
2022-09-11T01:34:22.950Z,21793.28
2022-09-11T01:35:37.044Z,24080.38
2022-09-11T01:36:46.521Z,20474.28
2022-09-11T01:37:56.051Z,18504.19
2022-09-11T01:39:02.229Z,18833.88
2022-09-11T01:40:16.879Z,17194.44
2022-09-11T01:41:29.079Z,14568.34
2022-09-11T01:42:35.810Z,13580.44
2022-09-11T01:43:43.261Z,12271.34
2022-09-11T01:44:57.497Z,12929.22
2022-09-11T01:46:03.726Z,10631.91
2022-09-11T01:47:10.720Z,10960.34
2022-09-11T01:48:18.025Z,8667.06
2022-09-11T01:49:35.318Z,8336.81
2022-09-11T01:50:42.904Z,6048.78
2022-09-11T01:51:48.665Z,5393.63
2022-09-11T01:52:58.091Z,4085.88
2022-09-11T01:54:02.857Z,3431.53
2022-09-11T01:55:13.348Z,1470.72
2022-09-11T01:56:23.912Z,3431.94
2022-09-11T01:57:35.829Z,4085.91
2022-09-11T01:58:41.408Z,5720.84
2022-09-11T01:59:49.633Z,6048.34
2022-09-11T02:01:01.279Z,8012.28
2022-09-11T02:02:09.709Z,8340.06
2022-09-11T02:03:25.515Z,7030.28
2022-09-11T02:04:38.950Z,10305.13
2022-09-11T02:06:04.802Z,13254.47
2022-09-11T02:07:18.406Z,11287.47
2022-09-11T02:08:31.451Z,13580.63
2022-09-11T02:09:46.883Z,11614.06
2022-09-11T02:10:54.039Z,8338.13
2022-09-11T02:11:58.194Z,7683.22
2022-09-11T02:13:29.587Z,10304.22
2022-09-11T02:14:42.032Z,12925.25
2022-09-11T02:15:54.441Z,13252.47
2022-09-11T02:17:24.629Z,16523.13
2022-09-11T02:18:41.338Z,11614.44
2022-09-11T02:19:43.855Z,11282.63
2022-09-11T02:20:47.592Z,8991.19
2022-09-11T02:21:53.416Z,8010.31
2022-09-11T02:22:56.709Z,7682.78
2022-09-11T02:24:00.487Z,7684.16
2022-09-11T02:25:03.528Z,10629.97
2022-09-11T02:26:09.599Z,12597.69
2022-09-11T02:27:17.652Z,14565.69
2022-09-11T02:28:19.975Z,17181.59
2022-09-11T02:29:22.573Z,18493.28
2022-09-11T02:30:24.876Z,19147.41
2022-09-11T02:31:27.994Z,17837.06
2022-09-11T02:32:32.579Z,13905.41
2022-09-11T02:33:37.548Z,13252.84
2022-09-11T02:34:42.850Z,14235.53
2022-09-11T02:35:50.666Z,14564.38
2022-09-11T02:36:59.105Z,16861.66
2022-09-11T02:38:25.274Z,18504.59
2022-09-11T02:39:55.351Z,16534.97
2022-09-11T02:41:10.020Z,11614.22
2022-09-11T02:42:12.867Z,9643.19
2022-09-11T02:43:39.486Z,6376.00
2022-09-11T02:45:11.723Z,6375.28
2022-09-11T02:46:26.161Z,4739.66
2022-09-11T02:47:46.897Z,5721.94
2022-09-11T02:48:58.054Z,9322.88
2022-09-11T02:50:08.060Z,11288.16
2022-09-11T02:51:23.802Z,11616.13
2022-09-11T02:52:28.512Z,10304.66
2022-09-11T02:53:53.267Z,9977.38
2022-09-11T02:55:44.758Z,8994.72
2022-09-11T02:57:04.160Z,9321.28
2022-09-11T02:58:15.643Z,8666.53
2022-09-11T02:59:25.130Z,9321.69
2022-09-11T03:00:27.795Z,11939.31
2022-09-11T03:01:31.735Z,13575.97
2022-09-11T03:02:38.848Z,13249.41
2022-09-11T03:03:45.955Z,12595.88
2022-09-11T03:04:48.624Z,15212.78
2022-09-11T03:05:50.991Z,15213.84
2022-09-11T03:06:53.769Z,17510.56
2022-09-11T03:07:55.995Z,20458.19
2022-09-11T03:08:58.593Z,20457.28
2022-09-11T03:10:00.738Z,20785.00
2022-09-11T03:11:03.526Z,19476.06
2022-09-11T03:12:06.910Z,19472.41
2022-09-11T03:13:11.558Z,21439.34
2022-09-11T03:14:14.416Z,21769.00
2022-09-11T03:15:17.806Z,19139.66
2022-09-11T03:16:22.229Z,15861.91
2022-09-11T03:17:25.636Z,14878.81
2022-09-11T03:18:27.749Z,17500.06
2022-09-11T03:19:30.577Z,19465.50
2022-09-11T03:20:33.943Z,19138.28
2022-09-11T03:21:37.070Z,18155.97
2022-09-11T03:22:39.742Z,18484.38
2022-09-11T03:23:42.061Z,18156.63
2022-09-11T03:24:45.091Z,18484.78
2022-09-11T03:25:47.939Z,19468.75
2022-09-11T03:26:50.258Z,19797.31
2022-09-11T03:27:52.935Z,19797.31
2022-09-11T03:28:55.595Z,19469.59
2022-09-11T03:29:57.958Z,20452.66
2022-09-11T03:31:00.828Z,21108.09
2022-09-11T03:32:03.171Z,20123.16
2022-09-11T03:33:05.372Z,23072.78
2022-09-11T03:34:07.708Z,23727.66
2022-09-11T03:35:09.965Z,24055.03
2022-09-11T03:36:13.803Z,24384.75
2022-09-11T03:37:27.327Z,22095.63
2022-09-11T03:38:33.051Z,23067.00
2022-09-11T03:39:35.575Z,23066.81
2022-09-11T03:40:38.569Z,22738.88
2022-09-11T03:41:40.794Z,22409.50
2022-09-11T03:42:42.950Z,21424.25
2022-09-11T03:43:45.086Z,20768.75
2022-09-11T03:44:47.585Z,20441.19
2022-09-11T03:45:50.380Z,18804.25
2022-09-11T03:46:53.044Z,17165.44
2022-09-11T03:47:55.458Z,17821.34
2022-09-11T03:48:57.569Z,18805.63
2022-09-11T03:49:59.693Z,20116.84
2022-09-11T03:51:02.449Z,18806.84
2022-09-11T03:52:05.057Z,18152.06
2022-09-11T03:53:07.443Z,17823.66
2022-09-11T03:54:10.625Z,18479.31
2022-09-11T03:55:12.791Z,16839.75
2022-09-11T03:56:15.282Z,16188.44
2022-09-11T03:57:22.304Z,17497.69
2022-09-11T03:58:24.514Z,16187.53
2022-09-11T03:59:26.645Z,15858.88
2022-09-11T04:00:29.326Z,18152.56
2022-09-11T04:01:32.608Z,19464.09
2022-09-11T04:02:34.795Z,22414.44
2022-09-11T04:03:36.946Z,23070.41
2022-09-11T04:04:39.161Z,22741.56
2022-09-11T04:05:43.917Z,18805.75
2022-09-11T04:06:46.066Z,15854.53
2022-09-11T04:07:48.621Z,15855.53
2022-09-11T04:08:51.197Z,16182.94
2022-09-11T04:09:54.635Z,17165.31
2022-09-11T04:11:02.771Z,16184.78
2022-09-11T04:12:06.929Z,16180.66
2022-09-11T04:13:09.093Z,11266.00
2022-09-11T04:14:11.318Z,7346.03
2022-09-11T04:15:15.034Z,6695.19
2022-09-11T04:16:19.452Z,6043.84
2022-09-11T04:17:26.057Z,10620.38
2022-09-11T04:18:31.274Z,12587.47
2022-09-11T04:19:34.255Z,15860.09
2022-09-11T04:20:39.401Z,15537.94
2022-09-11T04:21:42.264Z,18481.97
2022-09-11T04:22:44.624Z,18810.25
2022-09-11T04:23:55.907Z,17506.56
2022-09-11T04:25:00.331Z,17828.66
2022-09-11T04:26:12.281Z,16521.50
2022-09-11T04:27:14.332Z,20466.53
2022-09-11T04:28:16.553Z,21766.91
2022-09-11T04:29:19.484Z,21110.25
2022-09-11T04:30:22.329Z,21765.47
2022-09-11T04:31:27.622Z,22097.41
2022-09-11T04:32:29.997Z,21436.22
2022-09-11T04:33:32.214Z,21765.31
2022-09-11T04:34:34.330Z,22748.13
2022-09-11T04:35:41.040Z,19475.09
2022-09-11T04:36:43.732Z,20776.03
2022-09-11T04:37:49.598Z,19137.59
2022-09-11T04:38:55.859Z,16193.56
2022-09-11T04:39:58.084Z,17167.50
2022-09-11T04:41:01.809Z,13568.72
2022-09-11T04:42:04.394Z,13563.16
2022-09-11T04:43:08.117Z,11600.97
2022-09-11T04:44:10.411Z,12258.41
2022-09-11T04:45:17.179Z,15532.38
2022-09-11T04:46:19.651Z,15532.06
2022-09-11T04:47:21.802Z,15856.75
2022-09-11T04:48:23.985Z,15530.44
2022-09-11T04:49:26.077Z,15203.63
2022-09-11T04:50:29.182Z,14550.03
2022-09-11T04:51:50.671Z,15206.41
2022-09-11T04:52:55.675Z,15862.78
2022-09-11T04:54:00.679Z,16520.22
2022-09-11T04:55:08.407Z,17829.28
2022-09-11T04:56:15.073Z,15537.63
2022-09-11T04:57:21.119Z,16515.88
2022-09-11T04:58:23.308Z,14222.34
2022-09-11T04:59:26.543Z,12914.72
2022-09-11T05:00:35.217Z,14553.88
2022-09-11T05:01:37.767Z,15534.34
2022-09-11T05:03:09.501Z,14564.50
2022-09-11T05:04:16.124Z,15220.03
2022-09-11T05:05:18.325Z,16852.44
2022-09-11T05:06:20.498Z,16198.03
2022-09-11T05:07:24.313Z,17510.56
2022-09-11T05:08:28.270Z,17840.53
2022-09-11T05:09:30.487Z,18169.41
2022-09-11T05:10:38.159Z,16210.41
2022-09-11T05:11:41.730Z,20472.22
2022-09-11T05:12:45.218Z,20795.94
2022-09-11T05:13:47.941Z,21119.19
2022-09-11T05:14:51.208Z,19475.22
2022-09-11T05:15:53.999Z,18489.16
2022-09-11T05:16:56.240Z,16847.88
2022-09-11T05:18:00.727Z,16193.91
2022-09-11T05:19:06.050Z,15543.41
2022-09-11T05:20:11.990Z,16526.53
2022-09-11T05:21:18.065Z,16860.34
2022-09-11T05:22:21.390Z,19152.53
2022-09-11T05:23:29.848Z,19487.09
2022-09-11T05:24:32.290Z,20467.13
2022-09-11T05:25:36.870Z,21117.66
2022-09-11T05:26:39.006Z,19150.44
2022-09-11T05:27:42.589Z,19151.84
2022-09-11T05:28:45.243Z,18497.94
2022-09-11T05:29:47.443Z,18826.66
2022-09-11T05:30:50.777Z,19154.47
2022-09-11T05:31:55.003Z,18498.06
2022-09-11T05:32:57.401Z,19482.84
2022-09-11T05:34:00.540Z,18501.94
2022-09-11T05:35:02.886Z,18830.47
2022-09-11T05:36:06.594Z,19487.09
2022-09-11T05:37:09.033Z,19814.56
2022-09-11T05:38:17.141Z,19489.75
2022-09-11T05:39:19.255Z,18832.09
2022-09-11T05:40:22.353Z,18834.56
2022-09-11T05:41:25.025Z,21133.75
2022-09-11T05:42:28.638Z,22448.34
2022-09-11T05:43:32.847Z,21794.41
2022-09-11T05:44:37.023Z,19494.44
2022-09-11T05:45:39.219Z,21794.09
2022-09-11T05:46:41.421Z,23433.22
2022-09-11T05:47:43.630Z,20809.75
2022-09-11T05:48:45.902Z,21140.84
2022-09-11T05:49:48.082Z,23766.91
2022-09-11T05:50:54.757Z,22135.47
2022-09-11T05:51:57.450Z,24426.44
2022-09-11T05:53:01.108Z,21470.00
2022-09-11T05:54:04.376Z,21474.09
2022-09-11T05:55:07.817Z,21800.81
2022-09-11T05:56:14.039Z,20495.19
2022-09-11T05:57:16.500Z,23773.97
2022-09-11T05:58:19.141Z,23117.50
2022-09-11T05:59:22.250Z,23445.38
2022-09-11T06:00:25.507Z,22455.09
2022-09-11T06:01:28.875Z,19827.94
2022-09-11T06:02:40.704Z,18511.94
2022-09-11T06:03:43.714Z,17527.22
2022-09-11T06:04:47.111Z,16539.53
2022-09-11T06:05:49.263Z,15885.38
2022-09-11T06:06:52.022Z,15557.91
2022-09-11T06:07:54.685Z,15884.69
2022-09-11T06:08:56.810Z,12605.44
2022-09-11T06:10:02.988Z,12277.88
2022-09-11T06:11:08.231Z,11627.62
2022-09-11T06:12:12.389Z,14902.69
2022-09-11T06:13:17.834Z,12609.09
2022-09-11T06:14:22.019Z,14907.47
2022-09-11T06:15:45.536Z,13598.81
2022-09-11T06:16:48.871Z,17216.66
2022-09-11T06:17:51.665Z,18529.13
2022-09-11T06:18:54.320Z,20170.34
2022-09-11T06:19:56.836Z,18198.91
2022-09-11T06:21:01.381Z,19191.19
2022-09-11T06:22:08.629Z,20175.50
2022-09-11T06:23:15.319Z,22808.44
2022-09-11T06:24:18.591Z,21823.56
2022-09-11T06:25:20.806Z,21163.59
2022-09-11T06:26:25.490Z,20183.13
2022-09-11T06:27:28.376Z,23464.47
2022-09-11T06:28:30.667Z,20831.66
2022-09-11T06:29:34.243Z,20835.59
2022-09-11T06:30:37.388Z,20838.66
2022-09-11T06:31:39.505Z,21170.88
2022-09-11T06:32:41.646Z,19529.63
2022-09-11T06:33:45.468Z,20193.53
2022-09-11T06:34:47.616Z,22491.84
2022-09-11T06:35:58.702Z,21845.97
2022-09-11T06:37:01.051Z,26118.16
2022-09-11T06:38:03.211Z,26121.28
2022-09-11T06:39:05.617Z,25788.50
2022-09-11T06:40:09.628Z,23817.66
2022-09-11T06:41:14.869Z,25152.03
2022-09-11T06:42:18.349Z,29745.63
2022-09-11T06:43:21.618Z,24470.75
2022-09-11T06:44:24.227Z,25799.66
2022-09-11T06:45:30.241Z,30759.50
2022-09-11T06:46:32.442Z,37043.22
2022-09-11T06:47:35.937Z,33082.22
2022-09-11T06:48:43.904Z,33764.16
2022-09-11T06:49:46.272Z,38374.72
2022-09-11T06:51:17.462Z,38387.97
2022-09-11T06:52:19.574Z,44678.97
2022-09-11T06:53:32.308Z,50974.78
2022-09-11T06:54:40.757Z,50648.19
2022-09-11T06:55:48.165Z,49987.06
2022-09-11T06:56:51.893Z,44337.69
2022-09-11T06:57:53.986Z,42032.91
2022-09-11T06:59:00.753Z,43025.56
2022-09-11T07:00:04.092Z,45341.66
2022-09-11T07:01:14.071Z,44684.50
2022-09-11T07:02:17.655Z,42669.91
2022-09-11T07:03:21.613Z,40016.88
2022-09-11T07:04:25.913Z,40680.09
2022-09-11T07:05:29.373Z,40022.13
2022-09-11T07:06:32.230Z,36392.34
2022-09-11T07:07:36.386Z,39694.97
2022-09-11T07:08:39.476Z,40027.06
2022-09-11T07:09:41.694Z,40022.75
2022-09-11T07:10:43.874Z,39376.88
2022-09-11T07:11:46.852Z,41365.78
2022-09-11T07:12:49.304Z,46334.13
2022-09-11T07:13:51.445Z,46671.00
2022-09-11T07:14:53.911Z,46346.34
2022-09-11T07:16:02.974Z,50021.41
2022-09-11T07:17:07.998Z,53303.75
2022-09-11T07:18:10.319Z,44688.66
2022-09-11T07:19:12.664Z,45691.16
2022-09-11T07:20:17.627Z,44381.66
2022-09-11T07:21:22.923Z,49695.25
2022-09-11T07:22:29.380Z,50029.19
2022-09-11T07:23:31.537Z,52997.50
2022-09-11T07:24:34.251Z,50667.97
2022-09-11T07:25:40.683Z,41721.38
2022-09-11T07:26:43.129Z,49669.69
2022-09-11T07:27:56.930Z,50365.56
2022-09-11T07:28:59.765Z,57381.28
2022-09-11T07:30:03.194Z,66058.50
2022-09-11T07:31:20.702Z,64419.50
2022-09-11T07:32:23.531Z,69090.44
2022-09-11T07:33:27.577Z,68815.38
2022-09-11T07:34:32.940Z,81874.97
2022-09-11T07:35:39.723Z,91647.97
2022-09-11T07:36:41.871Z,97728.06
2022-09-11T07:37:48.911Z,101459.47
2022-09-11T07:38:54.733Z,106580.16
2022-09-11T07:39:58.212Z,148212.97
2022-09-11T07:41:03.243Z,128492.09
2022-09-11T07:42:07.319Z,132893.28
2022-09-11T07:43:10.271Z,116292.78
2022-09-11T07:44:12.532Z,124104.53
2022-09-11T07:45:18.735Z,128203.16
2022-09-11T07:46:27.383Z,129887.47
2022-09-11T07:47:31.141Z,125806.56
2022-09-11T07:48:34.029Z,119346.34
2022-09-11T07:49:36.167Z,121057.72
2022-09-11T07:50:39.411Z,126850.66
2022-09-11T07:51:41.693Z,133666.03
2022-09-11T07:52:45.003Z,133971.66
2022-09-11T07:53:50.987Z,131623.03
2022-09-11T07:54:53.898Z,125075.25
2022-09-11T07:56:11.702Z,101769.25
2022-09-11T07:57:14.376Z,102038.06
2022-09-11T07:58:17.921Z,92969.25
2022-09-11T07:59:20.164Z,100729.59
2022-09-11T08:00:24.042Z,98396.88
2022-09-11T08:01:37.435Z,106230.13
2022-09-11T08:02:42.868Z,134383.50
2022-09-11T08:03:45.867Z,125661.44
2022-09-11T08:04:48.190Z,150590.47
2022-09-11T08:05:50.338Z,150709.97
2022-09-11T08:06:52.662Z,150812.56
2022-09-11T08:08:02.991Z,150876.03
2022-09-11T08:09:12.387Z,150988.34
2022-09-11T08:10:27.125Z,151071.34
2022-09-11T08:11:31.816Z,151015.22
2022-09-11T08:12:34.666Z,150946.84
2022-09-11T08:13:37.496Z,150968.78
2022-09-11T08:14:39.944Z,151044.50
2022-09-11T08:15:56.840Z,151099.47
2022-09-11T08:16:59.014Z,151104.34
2022-09-11T08:18:03.667Z,151117.81
2022-09-11T08:19:07.895Z,151137.31
2022-09-11T08:20:10.110Z,151059.13
2022-09-11T08:21:13.332Z,151137.31
2022-09-11T08:22:15.797Z,151155.66
2022-09-11T08:23:22.066Z,151214.28
2022-09-11T08:24:24.896Z,151232.59
2022-09-11T08:25:31.214Z,151253.41
2022-09-11T08:26:37.055Z,151198.38
2022-09-11T08:27:39.274Z,151072.56
2022-09-11T08:28:45.706Z,151142.25
2022-09-11T08:29:47.895Z,151125.13
2022-09-11T08:30:50.078Z,151116.59
2022-09-11T08:31:52.223Z,151144.69
2022-09-11T08:32:54.487Z,151153.22
2022-09-11T08:33:56.989Z,151130.00
2022-09-11T08:34:59.317Z,151110.50
2022-09-11T08:36:05.189Z,151117.81
2022-09-11T08:37:08.417Z,151028.63
2022-09-11T08:38:11.425Z,151015.22
2022-09-11T08:39:13.600Z,151210.63
2022-09-11T08:40:22.361Z,151293.72
2022-09-11T08:41:36.514Z,151535.72
2022-09-11T08:42:44.263Z,151541.81
2022-09-11T08:43:53.494Z,151550.38
2022-09-11T08:45:00.165Z,151570.00
2022-09-11T08:46:12.824Z,151527.13
2022-09-11T08:47:22.390Z,151639.66
2022-09-11T08:48:28.874Z,151656.75
2022-09-11T08:49:42.960Z,151612.75
2022-09-11T08:50:46.259Z,151423.28
2022-09-11T08:51:52.905Z,151633.56
2022-09-11T08:52:56.524Z,151503.94
2022-09-11T08:54:02.428Z,151496.56
2022-09-11T08:55:06.441Z,151411.00
2022-09-11T08:56:18.012Z,151447.72
2022-09-11T08:58:19.219Z,151516.16
2022-09-11T08:59:33.607Z,151411.00
2022-09-11T09:00:44.049Z,151411.00
2022-09-11T09:01:52.506Z,151337.72
2022-09-11T09:03:09.868Z,151255.84
2022-09-11T09:04:21.770Z,151437.97
2022-09-11T09:05:55.972Z,151578.53
2022-09-11T09:07:04.222Z,151780.31
2022-09-11T09:08:09.494Z,151765.66
2022-09-11T09:09:34.343Z,152071.53
2022-09-11T09:11:04.376Z,152399.63
2022-09-11T09:12:16.069Z,152378.81
2022-09-11T09:14:13.861Z,152620.13
2022-09-11T09:15:17.086Z,152616.47
2022-09-11T09:16:35.028Z,152645.88
2022-09-11T09:18:10.252Z,152729.22
2022-09-11T09:19:23.591Z,152529.47
2022-09-11T09:20:34.214Z,152539.25
2022-09-11T09:21:43.732Z,152432.69
2022-09-11T09:23:01.796Z,152373.91
2022-09-11T09:24:19.217Z,152377.59
2022-09-11T09:25:24.901Z,152370.25
2022-09-11T09:26:39.918Z,152372.69
2022-09-11T09:27:49.210Z,152338.41
2022-09-11T09:28:57.091Z,152285.72
2022-09-11T09:30:06.230Z,152247.78
2022-09-11T09:31:11.824Z,152012.75
2022-09-11T09:32:24.144Z,151741.19
2022-09-11T09:33:48.344Z,151577.31
2022-09-11T09:34:55.285Z,151497.78
2022-09-11T09:36:14.674Z,151362.13
2022-09-11T09:37:21.676Z,151323.03
2022-09-11T09:38:29.297Z,151413.50
2022-09-11T09:39:32.014Z,151398.78
2022-09-11T09:40:36.331Z,151320.59
2022-09-11T09:41:57.645Z,151362.13
2022-09-11T09:43:20.600Z,151334.00
2022-09-11T09:44:52.171Z,151198.38
2022-09-11T09:46:12.040Z,151225.25
2022-09-11T09:47:15.287Z,151100.69
2022-09-11T09:48:17.987Z,151114.16
2022-09-11T09:49:28.662Z,151202.03
2022-09-11T09:50:32.265Z,151261.94
2022-09-11T09:51:35.370Z,151119.03
2022-09-11T09:52:37.503Z,151117.81
2022-09-11T09:53:48.954Z,151198.38
2022-09-11T09:55:01.328Z,151266.81
2022-09-11T09:56:05.281Z,151474.59
2022-09-11T09:57:10.490Z,151709.34
2022-09-11T09:58:12.639Z,151900.22
2022-09-11T09:59:20.301Z,152202.50
2022-09-11T10:00:22.390Z,152304.13
2022-09-11T10:01:46.536Z,152416.75
2022-09-11T10:02:55.440Z,152616.47
2022-09-11T10:04:11.526Z,152594.44
2022-09-11T10:05:43.918Z,153112.94
2022-09-11T10:06:49.518Z,153103.16
2022-09-11T10:07:57.720Z,153296.94
2022-09-11T10:09:03.241Z,153265.06
2022-09-11T10:10:06.201Z,153579.16
2022-09-11T10:11:12.217Z,153781.75
2022-09-11T10:12:21.463Z,153959.84
2022-09-11T10:13:28.243Z,154158.88
2022-09-11T10:14:51.982Z,153980.72
2022-09-11T10:15:59.749Z,153898.41
2022-09-11T10:17:02.858Z,154217.84
2022-09-11T10:18:33.187Z,154489.47
2022-09-11T10:19:41.687Z,154667.69
2022-09-11T10:20:44.488Z,154500.50
2022-09-11T10:21:46.597Z,154716.94
2022-09-11T10:22:50.161Z,154814.09
2022-09-11T10:24:00.801Z,154889.09
2022-09-11T10:25:12.887Z,154698.47
2022-09-11T10:26:21.006Z,154584.09
2022-09-11T10:27:27.220Z,154498.06
2022-09-11T10:28:33.474Z,154566.88
2022-09-11T10:29:35.759Z,154794.34
2022-09-11T10:30:41.491Z,154886.63
2022-09-11T10:32:02.717Z,154696.03
2022-09-11T10:33:40.085Z,154698.47
2022-09-11T10:34:43.661Z,154747.66
2022-09-11T10:35:55.139Z,154860.78
2022-09-11T10:37:07.522Z,154955.53
2022-09-11T10:38:18.055Z,155119.19
2022-09-11T10:39:22.202Z,155177.00
2022-09-11T10:40:24.418Z,154810.41
2022-09-11T10:41:28.336Z,154708.34
2022-09-11T10:42:32.937Z,154768.53
2022-09-11T10:43:43.496Z,154500.50
2022-09-11T10:44:47.674Z,154308.75
2022-09-11T10:46:20.785Z,154060.56
2022-09-11T10:47:32.677Z,153849.31
2022-09-11T10:48:35.643Z,153568.13
2022-09-11T10:49:37.902Z,153554.66
2022-09-11T10:50:40.033Z,153471.19
2022-09-11T10:51:57.022Z,153100.69
2022-09-11T10:53:20.221Z,153153.44
2022-09-11T10:54:38.397Z,153047.91
2022-09-11T10:55:45.971Z,152774.53
2022-09-11T10:57:01.640Z,152767.22
2022-09-11T10:58:14.334Z,152742.69
2022-09-11T10:59:22.836Z,152674.03
2022-09-11T11:00:27.916Z,152617.69
2022-09-11T11:01:30.126Z,152465.81
2022-09-11T11:02:39.115Z,152569.88
2022-09-11T11:03:41.576Z,152514.75
2022-09-11T11:04:43.790Z,152631.19
2022-09-11T11:06:19.994Z,153070.00
2022-09-11T11:08:00.678Z,153355.88
2022-09-11T11:09:12.448Z,153495.75
2022-09-11T11:10:35.694Z,153838.25
2022-09-11T11:11:52.888Z,154129.34
2022-09-11T11:13:30.797Z,154231.31
2022-09-11T11:15:04.294Z,154367.72
2022-09-11T11:16:39.558Z,154507.91
2022-09-11T11:18:24.176Z,154763.63
2022-09-11T11:19:41.253Z,154750.13
2022-09-11T11:21:00.038Z,154469.75
2022-09-11T11:22:05.233Z,154286.66
2022-09-11T11:23:48.635Z,154252.22
2022-09-11T11:25:00.587Z,154109.66
2022-09-11T11:26:24.032Z,153758.44
2022-09-11T11:27:43.169Z,153866.50
2022-09-11T11:29:03.382Z,153714.25
2022-09-11T11:30:23.982Z,153481.00
2022-09-11T11:31:46.598Z,153468.75
2022-09-11T11:33:10.172Z,153247.84
2022-09-11T11:34:42.773Z,153014.81
2022-09-11T11:36:07.145Z,152973.16
2022-09-11T11:37:18.031Z,152823.59
2022-09-11T11:38:34.559Z,152764.75
2022-09-11T11:40:00.314Z,152745.13
2022-09-11T11:41:21.292Z,153009.94
2022-09-11T11:42:55.409Z,153285.91
2022-09-11T11:44:02.018Z,153457.66
2022-09-11T11:45:07.348Z,153695.78
2022-09-11T11:46:18.280Z,154004.03
2022-09-11T11:47:25.330Z,154024.91
2022-09-11T11:48:39.510Z,154210.47
2022-09-11T11:50:00.192Z,154488.25
2022-09-11T11:51:04.986Z,154557.06
2022-09-11T11:52:30.907Z,154212.94
2022-09-11T11:53:38.969Z,154217.84
2022-09-11T11:54:49.544Z,154425.53
2022-09-11T11:56:18.893Z,154605.00
2022-09-11T11:57:25.357Z,154633.28
2022-09-11T11:58:47.279Z,154758.72
2022-09-11T12:00:03.590Z,154611.19
2022-09-11T12:01:28.722Z,154448.88
2022-09-11T12:02:40.228Z,154237.47
2022-09-11T12:03:52.963Z,154136.69
2022-09-11T12:05:30.332Z,153855.44
2022-09-11T12:06:32.464Z,153656.53
2022-09-11T12:07:37.297Z,153445.38
2022-09-11T12:08:45.647Z,153306.75
2022-09-11T12:09:49.694Z,153131.34
2022-09-11T12:11:04.545Z,153088.41
2022-09-11T12:12:07.978Z,153002.59
2022-09-11T12:13:15.753Z,153077.34
2022-09-11T12:14:32.152Z,153295.72
2022-09-11T12:15:36.750Z,153235.63
2022-09-11T12:16:39.083Z,153517.84
2022-09-11T12:17:41.634Z,153539.91
2022-09-11T12:19:04.088Z,153977.00
2022-09-11T12:20:12.190Z,154177.31
2022-09-11T12:21:23.202Z,154257.13
2022-09-11T12:22:38.940Z,153968.44
2022-09-11T12:23:50.213Z,154101.09
2022-09-11T12:24:59.043Z,154416.94
2022-09-11T12:26:04.156Z,154705.84
2022-09-11T12:27:34.551Z,154832.50
2022-09-11T12:28:37.909Z,154822.69
2022-09-11T12:29:40.000Z,154821.47
2022-09-11T12:30:56.244Z,154874.34
2022-09-11T12:32:01.178Z,154543.56
2022-09-11T12:33:27.628Z,154339.47
2022-09-11T12:34:38.850Z,153986.88
2022-09-11T12:35:43.883Z,153715.50
2022-09-11T12:37:07.344Z,153656.53
2022-09-11T12:38:09.486Z,153522.75
2022-09-11T12:39:34.711Z,153429.44
2022-09-11T12:41:01.989Z,153397.56
2022-09-11T12:42:33.654Z,153149.72
2022-09-11T12:43:35.763Z,152919.16
2022-09-11T12:44:46.847Z,152914.28
2022-09-11T12:45:49.118Z,152764.75
2022-09-11T12:46:54.070Z,152894.69
2022-09-11T12:48:06.528Z,152957.19
2022-09-11T12:49:22.022Z,153066.34
2022-09-11T12:50:27.658Z,153101.94
2022-09-11T12:51:36.180Z,153262.59
2022-09-11T12:52:39.442Z,153268.72
2022-09-11T12:53:47.062Z,153557.09
2022-09-11T12:54:51.090Z,153819.88
2022-09-11T12:56:03.143Z,154028.59
2022-09-11T12:57:16.101Z,154134.25
2022-09-11T12:58:21.015Z,154119.53
2022-09-11T12:59:31.895Z,154198.16
2022-09-11T13:00:43.741Z,154254.69
2022-09-11T13:01:46.312Z,154193.25
2022-09-11T13:02:55.589Z,154247.31
2022-09-11T13:04:15.218Z,154527.56
2022-09-11T13:05:24.909Z,154636.97
2022-09-11T13:06:51.932Z,154510.38
2022-09-11T13:07:57.975Z,154364.03
2022-09-11T13:09:02.562Z,154265.75
2022-09-11T13:10:30.405Z,154107.22
2022-09-11T13:11:34.435Z,153795.25
2022-09-11T13:12:52.270Z,154174.81
2022-09-11T13:13:56.114Z,154133.03
2022-09-11T13:15:01.263Z,154322.28
2022-09-11T13:16:24.209Z,154210.47